Terminal Aerodrome Forecast
Issued by NWS

Home | Current Version | Previous Version | Text Only | Print | Product List | Glossary On
Versions: 1 2 3 4 5 6 7 8 9 10 11 12 13
000
FTUS41 KBTV 300523
TAFMSS
TAF
KMSS 300523Z 3006/0106 22004KT P6SM FEW250
      TEMPO 3007/3011 3SM BR SCT001
     FM301200 17006KT P6SM FEW250
     FM301900 15008KT P6SM -SHRA SCT040 OVC080=

USA.gov is the U.S. government's official web portal to all federal, state and local government web resources and services.